createdAt,value
2017-12-19T00:00:35.086Z,112.80
2017-12-19T00:01:00.889Z,105.00
2017-12-19T00:01:26.448Z,104.70
2017-12-19T00:01:51.994Z,107.80
2017-12-19T00:02:17.722Z,104.30
2017-12-19T00:02:42.663Z,108.50
2017-12-19T00:03:08.561Z,108.30
2017-12-19T00:03:34.030Z,115.80
2017-12-19T00:03:59.907Z,120.30
2017-12-19T00:04:25.852Z,116.40
2017-12-19T00:04:50.940Z,106.00
2017-12-19T00:05:16.454Z,102.70
2017-12-19T00:05:42.597Z,104.60
2017-12-19T00:06:08.231Z,100.80
2017-12-19T00:06:33.058Z,107.90
2017-12-19T00:06:58.791Z,114.60
2017-12-19T00:07:24.281Z,106.10
2017-12-19T00:07:49.183Z,105.10
2017-12-19T00:08:15.103Z,113.10
2017-12-19T00:08:40.709Z,120.70
2017-12-19T00:09:32.422Z,108.10
2017-12-19T00:09:58.345Z,107.50
2017-12-19T00:10:24.179Z,112.60
2017-12-19T00:10:50.691Z,116.00
2017-12-19T00:11:15.546Z,120.70
2017-12-19T00:11:41.038Z,118.30
2017-12-19T00:12:06.623Z,110.90
2017-12-19T00:12:31.490Z,106.00
2017-12-19T00:13:22.077Z,111.10
2017-12-19T00:13:47.654Z,110.40
2017-12-19T00:14:13.722Z,109.70
2017-12-19T00:14:38.880Z,105.00
2017-12-19T00:15:03.616Z,101.60
2017-12-19T00:15:28.359Z,100.70
2017-12-19T00:15:54.011Z,103.20
2017-12-19T00:16:19.357Z,110.00
2017-12-19T00:16:44.802Z,104.30
2017-12-19T00:17:09.579Z,106.00
2017-12-19T00:17:34.984Z,104.50
2017-12-19T00:18:25.407Z,107.80
2017-12-19T00:18:50.013Z,110.50
2017-12-19T00:19:14.723Z,106.60
2017-12-19T00:19:39.760Z,107.50
2017-12-19T00:20:04.410Z,110.10
2017-12-19T00:20:29.079Z,106.70
2017-12-19T00:20:54.539Z,108.60
2017-12-19T00:21:19.976Z,109.10
2017-12-19T00:21:45.029Z,107.20
2017-12-19T00:22:09.782Z,111.80
2017-12-19T00:22:34.444Z,115.40
2017-12-19T00:22:59.795Z,116.00
2017-12-19T00:23:25.178Z,119.00
2017-12-19T00:23:51.118Z,118.80
2017-12-19T00:24:16.838Z,119.30
2017-12-19T00:24:42.148Z,121.10
2017-12-19T00:25:32.747Z,119.60
2017-12-19T00:25:58.517Z,122.20
2017-12-19T00:26:23.859Z,118.30
2017-12-19T00:26:49.391Z,108.90
2017-12-19T00:27:14.847Z,108.00
2017-12-19T00:27:39.994Z,116.20
2017-12-19T00:28:31.047Z,119.30
2017-12-19T00:28:56.340Z,120.80
2017-12-19T00:29:21.230Z,124.60
2017-12-19T00:29:46.613Z,125.10
2017-12-19T00:30:11.987Z,120.90
2017-12-19T00:30:36.670Z,114.70
2017-12-19T00:31:01.648Z,108.80
2017-12-19T00:31:26.986Z,109.70
2017-12-19T00:31:54.301Z,112.30
2017-12-19T00:32:45.227Z,110.30
2017-12-19T00:33:10.436Z,106.80
2017-12-19T00:33:35.550Z,107.50
2017-12-19T00:34:01.195Z,109.00
2017-12-19T00:34:26.313Z,112.00
2017-12-19T00:34:51.766Z,116.40
2017-12-19T00:35:17.148Z,121.40
2017-12-19T00:35:42.323Z,122.70
2017-12-19T00:36:07.747Z,122.00
2017-12-19T00:36:32.871Z,111.20
2017-12-19T00:36:57.942Z,108.70
2017-12-19T00:37:23.467Z,114.60
2017-12-19T00:37:48.238Z,126.50
2017-12-19T00:38:14.001Z,129.70
2017-12-19T00:39:04.565Z,128.20
2017-12-19T00:39:29.916Z,126.30
2017-12-19T00:39:54.981Z,123.30
2017-12-19T00:40:45.762Z,124.90
2017-12-19T00:41:11.437Z,122.40
2017-12-19T00:41:36.776Z,125.20
2017-12-19T00:42:01.460Z,125.00
2017-12-19T00:42:26.100Z,128.30
2017-12-19T00:42:51.980Z,132.10
2017-12-19T00:43:17.298Z,134.40
2017-12-19T00:43:42.821Z,130.30
2017-12-19T00:44:07.539Z,127.10
2017-12-19T00:44:32.895Z,125.50
2017-12-19T00:44:58.310Z,125.60
2017-12-19T00:45:22.909Z,131.00
2017-12-19T00:45:47.492Z,129.70
2017-12-19T00:46:12.446Z,126.10
2017-12-19T00:46:37.516Z,119.30
2017-12-19T00:47:02.950Z,127.20
2017-12-19T00:47:27.790Z,130.60
2017-12-19T00:47:53.877Z,130.90
2017-12-19T00:48:18.613Z,128.80
2017-12-19T00:48:43.948Z,127.90
2017-12-19T00:49:09.315Z,125.60
2017-12-19T00:49:59.962Z,122.90
2017-12-19T00:50:24.715Z,128.90
2017-12-19T00:50:50.091Z,125.80
2017-12-19T00:51:15.797Z,124.60
2017-12-19T00:51:41.103Z,122.60
2017-12-19T00:52:05.792Z,127.30
2017-12-19T00:52:56.672Z,128.60
2017-12-19T00:53:22.073Z,125.90
2017-12-19T00:53:47.495Z,130.90
2017-12-19T00:54:12.833Z,129.50
2017-12-19T00:54:38.638Z,131.10
2017-12-19T00:55:03.945Z,128.50
2017-12-19T00:55:29.208Z,123.50
2017-12-19T00:55:54.517Z,122.10
2017-12-19T00:56:19.928Z,122.40
2017-12-19T00:56:45.775Z,113.50
2017-12-19T00:57:11.145Z,115.70
2017-12-19T00:57:36.534Z,118.80
2017-12-19T00:58:01.895Z,110.40
2017-12-19T00:58:27.149Z,112.30
2017-12-19T00:58:52.522Z,115.30
2017-12-19T00:59:17.178Z,120.20
2017-12-19T00:59:41.784Z,126.20
2017-12-19T01:00:06.453Z,122.40
2017-12-19T01:00:31.795Z,113.70
2017-12-19T01:00:56.466Z,130.30
2017-12-19T01:01:21.449Z,140.90
2017-12-19T01:01:46.073Z,135.90
2017-12-19T01:02:11.203Z,123.60
2017-12-19T01:02:36.541Z,118.30
2017-12-19T01:03:01.847Z,116.30
2017-12-19T01:03:26.852Z,122.40
2017-12-19T01:03:52.193Z,118.90
2017-12-19T01:04:17.624Z,119.20
2017-12-19T01:04:42.315Z,123.70
2017-12-19T01:05:06.991Z,125.70
2017-12-19T01:05:32.390Z,129.30
2017-12-19T01:05:57.708Z,125.60
2017-12-19T01:06:23.369Z,127.10
2017-12-19T01:06:48.772Z,123.10
2017-12-19T01:07:13.901Z,122.10
2017-12-19T01:07:39.268Z,121.80
2017-12-19T01:08:04.664Z,132.50
2017-12-19T01:08:29.358Z,134.40
2017-12-19T01:08:54.699Z,134.40
2017-12-19T01:09:20.505Z,134.50
2017-12-19T01:10:35.199Z,126.20
2017-12-19T01:11:00.524Z,130.90
2017-12-19T01:11:26.186Z,127.00
2017-12-19T01:11:51.559Z,124.10
2017-12-19T01:12:16.868Z,133.30
2017-12-19T01:12:41.665Z,142.90
2017-12-19T01:13:06.379Z,139.40
2017-12-19T01:13:31.986Z,132.40
2017-12-19T01:13:56.614Z,137.70
2017-12-19T01:14:21.187Z,133.10
2017-12-19T01:14:45.833Z,138.50
2017-12-19T01:15:10.473Z,137.20
2017-12-19T01:15:35.130Z,138.50
2017-12-19T01:16:00.548Z,140.50
2017-12-19T01:16:25.582Z,134.40
2017-12-19T01:16:51.604Z,126.90
2017-12-19T01:17:17.159Z,136.10
2017-12-19T01:18:07.058Z,134.70
2017-12-19T01:18:31.744Z,137.40
2017-12-19T01:18:56.485Z,138.30
2017-12-19T01:19:21.158Z,144.30
2017-12-19T01:19:45.722Z,133.80
2017-12-19T01:20:10.404Z,127.60
2017-12-19T01:20:35.277Z,134.20
2017-12-19T01:20:59.962Z,139.50
2017-12-19T01:21:24.639Z,137.80
2017-12-19T01:21:50.350Z,139.60
2017-12-19T01:22:15.771Z,128.20
2017-12-19T01:22:41.298Z,131.40
2017-12-19T01:23:06.338Z,133.70
2017-12-19T01:23:31.702Z,131.90
2017-12-19T01:23:56.837Z,141.60
2017-12-19T01:24:21.501Z,148.70
2017-12-19T01:24:46.493Z,142.20
2017-12-19T01:25:11.533Z,138.00
2017-12-19T01:25:36.923Z,142.50
2017-12-19T01:26:02.235Z,141.80
2017-12-19T01:26:27.637Z,137.50
2017-12-19T01:26:53.058Z,138.80
2017-12-19T01:27:18.105Z,137.00
2017-12-19T01:27:43.094Z,132.70
2017-12-19T01:28:07.803Z,130.80
2017-12-19T01:28:33.137Z,137.50
2017-12-19T01:28:57.889Z,130.30
2017-12-19T01:29:23.719Z,131.60
2017-12-19T01:29:48.686Z,135.70
2017-12-19T01:30:13.713Z,139.30
2017-12-19T01:30:39.001Z,126.40
2017-12-19T01:31:29.916Z,131.40
2017-12-19T01:32:20.576Z,124.60
2017-12-19T01:32:45.328Z,127.90
2017-12-19T01:33:10.663Z,132.00
2017-12-19T01:33:36.081Z,132.00
2017-12-19T01:34:00.820Z,127.70
2017-12-19T01:34:26.142Z,131.60
2017-12-19T01:35:16.248Z,133.50
2017-12-19T01:35:41.586Z,130.90
2017-12-19T01:36:06.968Z,128.00
2017-12-19T01:36:31.955Z,127.70
2017-12-19T01:36:57.612Z,125.10
2017-12-19T01:37:22.356Z,131.60
2017-12-19T01:37:47.079Z,135.70
2017-12-19T01:38:12.454Z,141.80
2017-12-19T01:38:37.805Z,139.10
2017-12-19T01:39:03.067Z,142.50
2017-12-19T01:39:28.395Z,135.20
2017-12-19T01:39:53.086Z,133.20
2017-12-19T01:40:43.794Z,124.50
2017-12-19T01:41:08.979Z,125.70
2017-12-19T01:41:34.352Z,123.60
2017-12-19T01:41:59.366Z,124.30
2017-12-19T01:42:50.061Z,123.60
2017-12-19T01:43:15.418Z,129.60
2017-12-19T01:43:40.846Z,130.50
2017-12-19T01:44:05.849Z,127.60
2017-12-19T01:44:31.720Z,132.10
2017-12-19T01:44:57.119Z,129.00
2017-12-19T01:45:22.594Z,127.20
2017-12-19T01:45:47.267Z,129.40
2017-12-19T01:46:12.173Z,135.10
2017-12-19T01:46:37.575Z,133.60
2017-12-19T01:47:02.634Z,128.40
2017-12-19T01:47:27.621Z,124.60
2017-12-19T01:47:52.990Z,128.20
2017-12-19T01:48:18.376Z,123.40
2017-12-19T01:48:44.187Z,124.60
2017-12-19T01:49:08.853Z,132.00
2017-12-19T01:49:33.500Z,131.10
2017-12-19T01:49:58.117Z,129.50
2017-12-19T01:50:22.758Z,131.40
2017-12-19T01:50:47.446Z,130.70
2017-12-19T01:51:37.521Z,133.40
2017-12-19T01:52:03.325Z,134.20
2017-12-19T01:52:28.347Z,133.10
2017-12-19T01:52:53.672Z,126.80
2017-12-19T01:53:18.376Z,118.50
2017-12-19T01:53:43.402Z,126.70
2017-12-19T01:54:08.931Z,130.50
2017-12-19T01:54:33.488Z,126.90
2017-12-19T01:54:58.374Z,125.30
2017-12-19T01:55:23.696Z,132.20
2017-12-19T01:55:49.028Z,126.00
2017-12-19T01:56:14.350Z,123.10
2017-12-19T01:56:38.916Z,125.30
2017-12-19T01:57:04.518Z,123.60
2017-12-19T01:57:29.910Z,114.80
2017-12-19T01:57:55.244Z,110.90
2017-12-19T01:58:20.602Z,119.40
2017-12-19T01:58:46.082Z,128.80
2017-12-19T01:59:10.735Z,132.50
2017-12-19T01:59:35.351Z,135.60
2017-12-19T02:00:00.218Z,129.40
2017-12-19T02:00:25.629Z,136.00
2017-12-19T02:00:51.015Z,135.70
2017-12-19T02:01:16.942Z,130.40
2017-12-19T02:01:41.535Z,134.70
2017-12-19T02:02:07.266Z,134.90
2017-12-19T02:02:57.292Z,138.00
2017-12-19T02:03:22.589Z,134.90
2017-12-19T02:03:47.798Z,137.70
2017-12-19T02:04:37.188Z,132.80
2017-12-19T02:05:01.863Z,129.80
2017-12-19T02:05:27.006Z,126.70
2017-12-19T02:05:52.351Z,129.70
2017-12-19T02:06:42.092Z,136.70
2017-12-19T02:07:07.836Z,133.00
2017-12-19T02:07:33.270Z,130.60
2017-12-19T02:07:58.592Z,138.10
2017-12-19T02:08:24.035Z,138.30
2017-12-19T02:08:49.402Z,140.00
2017-12-19T02:09:14.852Z,134.40
2017-12-19T02:09:40.199Z,137.80
2017-12-19T02:10:05.192Z,144.20
2017-12-19T02:10:30.146Z,134.50
2017-12-19T02:10:54.789Z,122.80
2017-12-19T02:11:19.769Z,128.90
2017-12-19T02:11:45.128Z,135.70
2017-12-19T02:12:10.799Z,142.20
2017-12-19T02:12:36.230Z,144.00
2017-12-19T02:13:01.629Z,140.10
2017-12-19T02:13:27.020Z,134.80
2017-12-19T02:13:52.410Z,139.20
2017-12-19T02:14:17.073Z,145.20
2017-12-19T02:14:41.810Z,140.90
2017-12-19T02:15:06.658Z,138.30
2017-12-19T02:15:31.319Z,133.30
2017-12-19T02:15:56.016Z,131.20
2017-12-19T02:16:20.630Z,130.80
2017-12-19T02:16:45.350Z,140.20
2017-12-19T02:17:10.288Z,142.60
2017-12-19T02:17:34.810Z,143.40
2017-12-19T02:18:00.044Z,141.00
2017-12-19T02:18:24.548Z,137.00
2017-12-19T02:18:49.758Z,149.20
2017-12-19T02:19:14.369Z,148.60
2017-12-19T02:19:40.587Z,135.80
2017-12-19T02:20:05.817Z,131.20
2017-12-19T02:20:31.155Z,142.20
2017-12-19T02:20:56.003Z,149.60
2017-12-19T02:21:20.605Z,145.70
2017-12-19T02:22:11.210Z,152.80
2017-12-19T02:22:35.822Z,147.90
2017-12-19T02:23:01.065Z,137.40
2017-12-19T02:23:25.634Z,130.50
2017-12-19T02:23:50.178Z,137.10
2017-12-19T02:24:39.961Z,140.30
2017-12-19T02:25:04.595Z,139.40
2017-12-19T02:25:29.811Z,143.80
2017-12-19T02:25:55.041Z,148.30
2017-12-19T02:26:20.333Z,152.50
2017-12-19T02:26:44.903Z,147.00
2017-12-19T02:27:10.187Z,147.70
2017-12-19T02:27:35.064Z,144.50
2017-12-19T02:27:59.701Z,139.60
2017-12-19T02:28:24.965Z,143.90
2017-12-19T02:28:49.551Z,144.70
2017-12-19T02:29:14.111Z,147.50
2017-12-19T02:29:39.478Z,150.80
2017-12-19T02:30:04.077Z,154.90
2017-12-19T02:30:29.338Z,147.70
2017-12-19T02:30:54.299Z,146.80
2017-12-19T02:31:18.839Z,149.90
2017-12-19T02:31:44.085Z,154.30
2017-12-19T02:32:09.399Z,158.70
2017-12-19T02:32:36.180Z,0.00
2017-12-19T02:33:01.445Z,155.60
2017-12-19T02:33:26.749Z,152.60
2017-12-19T02:33:51.363Z,157.60
2017-12-19T02:34:16.534Z,169.70
2017-12-19T02:34:41.107Z,176.90
2017-12-19T02:35:06.529Z,175.20
2017-12-19T02:35:31.720Z,178.20
2017-12-19T02:35:56.222Z,172.90
2017-12-19T02:36:20.789Z,163.30
2017-12-19T02:36:46.395Z,167.30
2017-12-19T02:37:11.710Z,164.40
2017-12-19T02:37:36.584Z,166.30
2017-12-19T02:38:01.486Z,179.50
2017-12-19T02:38:26.010Z,192.00
2017-12-19T02:38:50.585Z,195.80
2017-12-19T02:39:15.178Z,173.80
2017-12-19T02:39:39.873Z,156.80
2017-12-19T02:40:05.115Z,168.70
2017-12-19T02:40:30.382Z,176.70
2017-12-19T02:40:55.259Z,179.20
2017-12-19T02:41:20.126Z,182.20
2017-12-19T02:41:45.397Z,184.70
2017-12-19T02:42:10.290Z,184.70
2017-12-19T02:42:35.555Z,181.00
2017-12-19T02:43:01.725Z,179.50
2017-12-19T02:43:26.669Z,172.30
2017-12-19T02:43:51.965Z,167.40
2017-12-19T02:44:17.307Z,162.40
2017-12-19T02:44:41.834Z,170.60
2017-12-19T02:45:06.423Z,178.60
2017-12-19T02:45:31.704Z,178.30
2017-12-19T02:45:57.074Z,171.90
2017-12-19T02:46:22.431Z,164.00
2017-12-19T02:46:47.728Z,172.90
2017-12-19T02:47:13.097Z,172.10
2017-12-19T02:47:38.208Z,171.60
2017-12-19T02:48:03.094Z,176.60
2017-12-19T02:48:27.671Z,177.20
2017-12-19T02:48:52.320Z,171.00
2017-12-19T02:49:41.633Z,168.80
2017-12-19T02:50:06.194Z,156.50
2017-12-19T02:50:31.442Z,174.30
2017-12-19T02:50:57.237Z,174.40
2017-12-19T02:51:22.201Z,170.50
2017-12-19T02:51:47.508Z,172.50
2017-12-19T02:52:12.590Z,173.20
2017-12-19T02:52:37.616Z,169.30
2017-12-19T02:53:02.180Z,167.70
2017-12-19T02:53:27.851Z,164.40
2017-12-19T02:53:52.491Z,161.40
2017-12-19T02:54:17.086Z,147.20
2017-12-19T02:54:41.666Z,147.40
2017-12-19T02:55:06.582Z,147.90
2017-12-19T02:55:31.849Z,160.90
2017-12-19T02:55:57.175Z,161.30
2017-12-19T02:56:22.090Z,160.20
2017-12-19T02:56:47.364Z,153.90
2017-12-19T02:57:12.247Z,155.70
2017-12-19T02:57:37.248Z,160.30
2017-12-19T02:58:02.325Z,153.20
2017-12-19T02:58:27.179Z,163.60
2017-12-19T02:58:52.408Z,160.60
2017-12-19T02:59:17.727Z,156.70
2017-12-19T02:59:42.544Z,165.30
2017-12-19T03:00:07.865Z,158.10
2017-12-19T03:00:33.165Z,155.50
2017-12-19T03:00:58.461Z,154.10
2017-12-19T03:01:23.757Z,156.10
2017-12-19T03:01:48.744Z,161.40
2017-12-19T03:02:13.314Z,163.40
2017-12-19T03:02:37.995Z,171.60
2017-12-19T03:03:02.897Z,164.00
2017-12-19T03:03:28.549Z,164.40
2017-12-19T03:03:54.037Z,169.60
2017-12-19T03:04:19.372Z,170.10
2017-12-19T03:04:44.624Z,170.00
2017-12-19T03:05:09.920Z,172.30
2017-12-19T03:05:35.289Z,176.60
2017-12-19T03:06:00.214Z,168.50
2017-12-19T03:06:25.080Z,177.00
2017-12-19T03:06:49.941Z,185.00
2017-12-19T03:07:14.844Z,184.80
2017-12-19T03:08:05.052Z,157.80
2017-12-19T03:08:30.354Z,153.90
2017-12-19T03:08:55.606Z,161.10
2017-12-19T03:09:20.198Z,161.10
2017-12-19T03:09:44.833Z,162.80
2017-12-19T03:10:10.669Z,160.60
2017-12-19T03:11:00.180Z,169.70
2017-12-19T03:11:24.690Z,164.60
2017-12-19T03:11:49.346Z,160.80
2017-12-19T03:12:13.842Z,164.70
2017-12-19T03:12:39.146Z,178.10
2017-12-19T03:13:03.777Z,178.60
2017-12-19T03:13:29.017Z,173.00
2017-12-19T03:13:54.661Z,169.60
2017-12-19T03:14:19.959Z,169.60
2017-12-19T03:14:45.182Z,177.80
2017-12-19T03:15:10.571Z,168.10
2017-12-19T03:15:35.416Z,161.60
2017-12-19T03:16:00.376Z,154.90
2017-12-19T03:16:24.911Z,161.00
2017-12-19T03:16:49.483Z,178.00
2017-12-19T03:17:14.431Z,187.90
2017-12-19T03:17:39.786Z,176.90
2017-12-19T03:18:04.973Z,166.30
2017-12-19T03:18:29.681Z,172.30
2017-12-19T03:18:55.423Z,164.90
2017-12-19T03:19:19.982Z,173.60
2017-12-19T03:19:45.262Z,187.80
2017-12-19T03:20:35.886Z,178.50
2017-12-19T03:21:01.186Z,166.80
2017-12-19T03:21:25.749Z,164.20
2017-12-19T03:21:50.310Z,167.60
2017-12-19T03:22:15.699Z,171.10
2017-12-19T03:22:40.774Z,170.30
2017-12-19T03:23:06.122Z,165.70
2017-12-19T03:23:33.620Z,164.90
2017-12-19T03:23:59.269Z,166.60
2017-12-19T03:24:23.889Z,168.80
2017-12-19T03:24:49.236Z,163.00
2017-12-19T03:25:14.617Z,162.70
2017-12-19T03:25:39.209Z,166.20
2017-12-19T03:26:04.009Z,170.20
2017-12-19T03:26:28.634Z,164.90
2017-12-19T03:26:53.949Z,163.40
2017-12-19T03:27:19.501Z,168.70
2017-12-19T03:27:44.551Z,167.80
2017-12-19T03:28:09.226Z,161.40
2017-12-19T03:28:33.951Z,161.80
2017-12-19T03:28:58.952Z,174.80
2017-12-19T03:29:24.280Z,177.60
2017-12-19T03:29:49.663Z,170.90
2017-12-19T03:30:14.992Z,164.50
2017-12-19T03:30:40.398Z,166.70
2017-12-19T03:31:05.804Z,165.70
2017-12-19T03:31:30.519Z,174.70
2017-12-19T03:32:20.248Z,188.80
2017-12-19T03:32:47.486Z,0.00
2017-12-19T03:33:12.920Z,178.60
2017-12-19T03:33:37.573Z,182.60
2017-12-19T03:34:03.327Z,190.50
2017-12-19T03:34:28.815Z,197.20
2017-12-19T03:34:55.149Z,187.40
2017-12-19T03:35:20.576Z,179.30
2017-12-19T03:35:45.235Z,185.60
2017-12-19T03:36:09.902Z,184.50
2017-12-19T03:36:35.338Z,181.30
2017-12-19T03:37:00.664Z,192.70
2017-12-19T03:37:25.720Z,191.80
2017-12-19T03:37:51.071Z,182.70
2017-12-19T03:38:16.491Z,176.90
2017-12-19T03:38:41.824Z,188.40
2017-12-19T03:39:07.507Z,178.70
2017-12-19T03:39:32.909Z,165.60
2017-12-19T03:39:57.530Z,180.00
2017-12-19T03:40:47.664Z,164.90
2017-12-19T03:41:13.146Z,170.80
2017-12-19T03:41:38.484Z,180.20
2017-12-19T03:42:30.082Z,197.80
2017-12-19T03:42:54.719Z,198.40
2017-12-19T03:43:20.101Z,196.40
2017-12-19T03:43:45.507Z,190.70
2017-12-19T03:44:10.925Z,182.60
2017-12-19T03:44:35.645Z,183.30
2017-12-19T03:45:01.064Z,201.60
2017-12-19T03:45:25.736Z,215.50
2017-12-19T03:45:51.067Z,211.50
2017-12-19T03:46:43.561Z,190.30
2017-12-19T03:47:54.051Z,181.80
2017-12-19T03:49:06.455Z,198.00
2017-12-19T03:49:32.263Z,204.10
2017-12-19T03:49:56.983Z,183.30
2017-12-19T03:50:21.845Z,178.20
2017-12-19T03:50:47.214Z,178.30
2017-12-19T03:51:12.610Z,176.70
2017-12-19T03:51:37.343Z,169.10
2017-12-19T03:52:02.806Z,181.80
2017-12-19T03:52:53.603Z,194.80
2017-12-19T03:53:18.327Z,190.10
2017-12-19T03:53:43.409Z,185.40
2017-12-19T03:54:08.958Z,198.80
2017-12-19T03:54:34.718Z,204.80
2017-12-19T03:55:00.174Z,199.80
2017-12-19T03:55:25.231Z,190.10
2017-12-19T03:55:50.700Z,196.90
2017-12-19T03:56:40.925Z,200.00
2017-12-19T03:57:05.881Z,190.10
2017-12-19T03:57:31.288Z,191.10
2017-12-19T03:57:56.688Z,186.10
2017-12-19T03:58:21.342Z,195.10
2017-12-19T03:58:46.773Z,190.10
2017-12-19T03:59:12.191Z,179.50
2017-12-19T03:59:37.976Z,182.60
2017-12-19T04:00:02.661Z,184.00
2017-12-19T04:00:27.440Z,202.70
2017-12-19T04:00:52.861Z,199.10
2017-12-19T04:01:43.008Z,185.50
2017-12-19T04:02:07.629Z,182.80
2017-12-19T04:02:32.794Z,183.70
2017-12-19T04:02:57.995Z,198.10
2017-12-19T04:03:23.388Z,200.00
2017-12-19T04:03:48.793Z,198.60
2017-12-19T04:04:14.175Z,194.20
2017-12-19T04:04:39.967Z,186.30
2017-12-19T04:05:06.259Z,187.20
2017-12-19T04:05:31.731Z,186.00
2017-12-19T04:05:57.081Z,196.40
2017-12-19T04:06:47.120Z,178.80
2017-12-19T04:07:12.535Z,189.00
2017-12-19T04:07:37.858Z,196.40
2017-12-19T04:08:03.231Z,184.00
2017-12-19T04:08:28.252Z,182.40
2017-12-19T04:08:52.988Z,185.30
2017-12-19T04:09:17.690Z,179.40
2017-12-19T04:09:43.372Z,165.30
2017-12-19T04:10:08.333Z,173.20
2017-12-19T04:10:33.684Z,183.20
2017-12-19T04:10:59.072Z,181.70
2017-12-19T04:11:26.465Z,179.80
2017-12-19T04:11:51.803Z,177.30
2017-12-19T04:12:16.622Z,185.70
2017-12-19T04:12:42.021Z,204.10
2017-12-19T04:13:07.413Z,202.20
2017-12-19T04:13:32.220Z,189.50
2017-12-19T04:13:58.336Z,188.80
2017-12-19T04:14:24.182Z,210.60
2017-12-19T04:14:49.904Z,220.40
2017-12-19T04:15:15.245Z,207.60
2017-12-19T04:15:40.695Z,210.90
2017-12-19T04:16:06.072Z,214.60
2017-12-19T04:16:30.808Z,234.90
2017-12-19T04:16:56.123Z,226.60
2017-12-19T04:17:20.841Z,218.20
2017-12-19T04:17:45.782Z,212.70
2017-12-19T04:18:11.158Z,197.30
2017-12-19T04:18:36.319Z,188.80
2017-12-19T04:19:01.767Z,192.10
2017-12-19T04:19:27.153Z,192.60
2017-12-19T04:19:53.295Z,192.20
2017-12-19T04:20:18.728Z,211.40
2017-12-19T04:20:44.133Z,230.40
2017-12-19T04:21:09.496Z,238.00
2017-12-19T04:21:34.178Z,230.70
2017-12-19T04:21:59.196Z,221.80
2017-12-19T04:22:24.520Z,225.20
2017-12-19T04:22:49.798Z,225.40
2017-12-19T04:23:15.120Z,221.90
2017-12-19T04:24:05.216Z,210.10
2017-12-19T04:24:30.609Z,215.60
2017-12-19T04:24:56.319Z,223.60
2017-12-19T04:25:21.068Z,214.30
2017-12-19T04:25:46.492Z,198.30
2017-12-19T04:26:11.894Z,205.90
2017-12-19T04:26:37.324Z,201.80
2017-12-19T04:27:01.999Z,206.10
2017-12-19T04:27:27.335Z,197.30
2017-12-19T04:27:52.745Z,204.10
2017-12-19T04:28:17.838Z,214.30
2017-12-19T04:28:42.556Z,205.20
2017-12-19T04:29:07.541Z,205.60
2017-12-19T04:29:32.872Z,207.70
2017-12-19T04:29:57.927Z,206.20
2017-12-19T04:30:23.065Z,216.60
2017-12-19T04:30:48.489Z,237.10
2017-12-19T04:31:13.116Z,246.40
2017-12-19T04:31:38.470Z,236.40
2017-12-19T04:32:03.417Z,240.30
2017-12-19T04:32:28.803Z,261.10
2017-12-19T04:32:54.217Z,263.40
2017-12-19T04:33:18.906Z,245.60
2017-12-19T04:33:43.531Z,232.90
2017-12-19T04:34:08.178Z,220.40
2017-12-19T04:34:33.614Z,217.40
2017-12-19T04:34:58.633Z,221.50
2017-12-19T04:35:23.993Z,221.00
2017-12-19T04:36:14.019Z,198.80
2017-12-19T04:36:39.383Z,211.80
2017-12-19T04:37:04.756Z,222.10
2017-12-19T04:37:30.155Z,233.90
2017-12-19T04:37:55.092Z,242.70
2017-12-19T04:38:20.532Z,243.50
2017-12-19T04:38:45.970Z,234.40
2017-12-19T04:39:10.613Z,225.70
2017-12-19T04:39:36.112Z,236.10
2017-12-19T04:40:01.881Z,262.60
2017-12-19T04:40:27.178Z,241.50
2017-12-19T04:40:51.859Z,247.20
2017-12-19T04:41:16.890Z,241.30
2017-12-19T04:41:42.010Z,240.20
2017-12-19T04:42:07.108Z,230.70
2017-12-19T04:42:32.405Z,221.80
2017-12-19T04:43:22.421Z,261.10
2017-12-19T04:43:47.497Z,248.70
2017-12-19T04:44:39.323Z,237.20
2017-12-19T04:45:04.784Z,240.20
2017-12-19T04:45:30.154Z,261.90
2017-12-19T04:45:55.460Z,279.70
2017-12-19T04:46:20.158Z,270.60
2017-12-19T04:47:09.822Z,260.90
2017-12-19T04:47:35.713Z,264.80
2017-12-19T04:48:00.329Z,276.60
2017-12-19T04:48:25.759Z,253.60
2017-12-19T04:48:50.943Z,237.10
2017-12-19T04:49:15.642Z,234.90
2017-12-19T04:49:41.063Z,254.60
2017-12-19T04:50:06.735Z,268.20
2017-12-19T04:50:32.775Z,279.60
2017-12-19T04:50:57.439Z,259.80
2017-12-19T04:51:22.436Z,235.60
2017-12-19T04:51:47.861Z,239.60
2017-12-19T04:52:13.039Z,232.40
2017-12-19T04:52:38.431Z,234.50
2017-12-19T04:53:29.108Z,249.20
2017-12-19T04:53:54.202Z,236.60
2017-12-19T04:54:19.139Z,229.00
2017-12-19T04:54:44.494Z,216.90
2017-12-19T04:55:10.011Z,232.10
2017-12-19T04:55:35.083Z,222.50
2017-12-19T04:56:00.546Z,237.80
2017-12-19T04:56:26.052Z,232.50
2017-12-19T04:56:50.811Z,227.20
2017-12-19T04:57:16.136Z,242.80
2017-12-19T04:57:40.937Z,254.90
2017-12-19T04:58:05.661Z,255.10
2017-12-19T04:58:31.044Z,253.90
2017-12-19T04:58:55.719Z,256.50
2017-12-19T04:59:21.108Z,255.60
2017-12-19T04:59:46.638Z,272.50
2017-12-19T05:00:12.450Z,271.70
2017-12-19T05:00:37.717Z,265.70
2017-12-19T05:01:02.361Z,247.10
2017-12-19T05:01:27.740Z,247.10
2017-12-19T05:01:53.180Z,257.30
2017-12-19T05:02:44.017Z,268.10
2017-12-19T05:03:09.368Z,262.20
2017-12-19T05:03:34.891Z,268.40
2017-12-19T05:04:00.242Z,276.00
2017-12-19T05:04:24.900Z,269.40
2017-12-19T05:04:49.649Z,255.10
2017-12-19T05:05:15.286Z,245.80
2017-12-19T05:05:40.726Z,264.80
2017-12-19T05:06:06.173Z,273.20
2017-12-19T05:06:31.303Z,287.80
2017-12-19T05:06:56.599Z,266.80
2017-12-19T05:07:21.987Z,277.20
2017-12-19T05:07:46.967Z,264.00
2017-12-19T05:08:11.624Z,270.90
2017-12-19T05:08:37.026Z,273.40
2017-12-19T05:09:27.916Z,272.40
2017-12-19T05:09:52.621Z,277.90
2017-12-19T05:10:43.712Z,275.70
2017-12-19T05:11:08.374Z,264.50
2017-12-19T05:11:33.813Z,255.70
2017-12-19T05:11:58.926Z,245.10
2017-12-19T05:12:24.408Z,241.40
2017-12-19T05:12:49.714Z,250.50
2017-12-19T05:13:15.166Z,243.20
2017-12-19T05:13:40.536Z,230.90
2017-12-19T05:14:06.182Z,223.50
2017-12-19T05:14:30.832Z,230.20
2017-12-19T05:14:56.230Z,249.30
2017-12-19T05:15:21.208Z,244.70
2017-12-19T05:15:46.577Z,237.90
2017-12-19T05:16:11.764Z,223.40
2017-12-19T05:16:37.006Z,230.10
2017-12-19T05:17:02.421Z,238.80
2017-12-19T05:17:53.176Z,236.30
2017-12-19T05:18:17.845Z,233.10
2017-12-19T05:18:42.909Z,241.50
2017-12-19T05:19:07.728Z,238.60
2017-12-19T05:19:33.388Z,237.30
2017-12-19T05:19:58.766Z,227.40
2017-12-19T05:20:24.398Z,225.50
2017-12-19T05:20:49.812Z,231.80
2017-12-19T05:21:15.163Z,236.20
2017-12-19T05:21:39.743Z,243.00
2017-12-19T05:22:05.109Z,245.80
2017-12-19T05:22:29.766Z,241.40
2017-12-19T05:22:54.421Z,229.50
2017-12-19T05:23:19.135Z,213.70
2017-12-19T05:23:44.630Z,217.60
2017-12-19T05:24:11.028Z,227.80
2017-12-19T05:24:35.857Z,253.50
2017-12-19T05:25:26.802Z,246.50
2017-12-19T05:25:52.200Z,243.30
2017-12-19T05:26:17.563Z,232.50
2017-12-19T05:26:42.271Z,218.30
2017-12-19T05:27:07.294Z,211.90
2017-12-19T05:27:31.945Z,238.30
2017-12-19T05:27:56.549Z,263.20
2017-12-19T05:28:21.629Z,257.40
2017-12-19T05:28:46.294Z,235.90
2017-12-19T05:29:11.258Z,240.70
2017-12-19T05:29:36.638Z,245.50
2017-12-19T05:30:02.014Z,244.40
2017-12-19T05:30:27.743Z,236.80
2017-12-19T05:30:53.170Z,231.30
2017-12-19T05:31:18.463Z,218.70
2017-12-19T05:31:43.109Z,230.40
2017-12-19T05:32:08.483Z,243.90
2017-12-19T05:32:34.358Z,232.50
2017-12-19T05:32:59.101Z,246.90
2017-12-19T05:33:23.992Z,234.60
2017-12-19T05:33:49.883Z,214.00
2017-12-19T05:34:15.249Z,213.80
2017-12-19T05:34:40.580Z,211.50
2017-12-19T05:35:05.243Z,206.90
2017-12-19T05:35:31.097Z,205.40
2017-12-19T05:35:55.689Z,223.10